sensor_id;sensor_type;location;lat;lon;timestamp;P1;durP1;ratioP1;P2;durP2;ratioP2
4420;SDS011;11824;51.178;13.546;2023-07-24T00:02:04;10.53;;;3.47;;
4420;SDS011;11824;51.178;13.546;2023-07-24T00:04:31;8.53;;;3.90;;
4420;SDS011;11824;51.178;13.546;2023-07-24T00:06:59;4.73;;;3.73;;
4420;SDS011;11824;51.178;13.546;2023-07-24T00:09:27;8.67;;;4.87;;
4420;SDS011;11824;51.178;13.546;2023-07-24T00:11:55;7.77;;;4.00;;
4420;SDS011;11824;51.178;13.546;2023-07-24T00:14:22;8.90;;;4.00;;
4420;SDS011;11824;51.178;13.546;2023-07-24T00:16:50;5.50;;;3.63;;
4420;SDS011;11824;51.178;13.546;2023-07-24T00:19:17;11.33;;;3.97;;
4420;SDS011;11824;51.178;13.546;2023-07-24T00:21:45;11.13;;;3.90;;
4420;SDS011;11824;51.178;13.546;2023-07-24T00:24:12;5.00;;;3.97;;
4420;SDS011;11824;51.178;13.546;2023-07-24T00:26:40;7.60;;;4.20;;
4420;SDS011;11824;51.178;13.546;2023-07-24T00:29:08;10.43;;;3.80;;
4420;SDS011;11824;51.178;13.546;2023-07-24T00:31:35;6.30;;;3.97;;
4420;SDS011;11824;51.178;13.546;2023-07-24T00:34:03;9.23;;;3.37;;
4420;SDS011;11824;51.178;13.546;2023-07-24T00:36:30;5.33;;;3.70;;
4420;SDS011;11824;51.178;13.546;2023-07-24T00:38:58;8.60;;;4.07;;
4420;SDS011;11824;51.178;13.546;2023-07-24T00:41:25;6.70;;;3.70;;
4420;SDS011;11824;51.178;13.546;2023-07-24T00:43:53;9.83;;;3.87;;
4420;SDS011;11824;51.178;13.546;2023-07-24T00:46:21;8.70;;;4.10;;
4420;SDS011;11824;51.178;13.546;2023-07-24T00:48:49;6.67;;;4.00;;
4420;SDS011;11824;51.178;13.546;2023-07-24T00:51:17;10.70;;;4.10;;
4420;SDS011;11824;51.178;13.546;2023-07-24T00:53:45;5.70;;;4.03;;
4420;SDS011;11824;51.178;13.546;2023-07-24T00:56:13;4.97;;;3.53;;
4420;SDS011;11824;51.178;13.546;2023-07-24T00:58:40;7.20;;;3.80;;
4420;SDS011;11824;51.178;13.546;2023-07-24T01:01:08;8.37;;;4.00;;
4420;SDS011;11824;51.178;13.546;2023-07-24T01:03:37;6.50;;;4.17;;
4420;SDS011;11824;51.178;13.546;2023-07-24T01:06:05;5.70;;;4.90;;
4420;SDS011;11824;51.178;13.546;2023-07-24T01:08:33;7.80;;;4.70;;
4420;SDS011;11824;51.178;13.546;2023-07-24T01:11:02;8.67;;;4.03;;
4420;SDS011;11824;51.178;13.546;2023-07-24T01:13:36;9.63;;;3.80;;
4420;SDS011;11824;51.178;13.546;2023-07-24T01:16:07;6.60;;;4.50;;
4420;SDS011;11824;51.178;13.546;2023-07-24T01:18:40;5.57;;;4.57;;
4420;SDS011;11824;51.178;13.546;2023-07-24T01:21:11;7.67;;;4.50;;
4420;SDS011;11824;51.178;13.546;2023-07-24T01:23:44;9.80;;;4.47;;
4420;SDS011;11824;51.178;13.546;2023-07-24T01:26:21;7.20;;;3.53;;
4420;SDS011;11824;51.178;13.546;2023-07-24T01:28:50;5.50;;;4.17;;
4420;SDS011;11824;51.178;13.546;2023-07-24T01:31:17;9.83;;;5.10;;
4420;SDS011;11824;51.178;13.546;2023-07-24T01:33:44;11.23;;;4.43;;
4420;SDS011;11824;51.178;13.546;2023-07-24T01:36:12;6.63;;;3.70;;
4420;SDS011;11824;51.178;13.546;2023-07-24T01:38:40;4.77;;;4.20;;
4420;SDS011;11824;51.178;13.546;2023-07-24T01:41:08;8.13;;;4.23;;
4420;SDS011;11824;51.178;13.546;2023-07-24T01:43:37;9.20;;;4.70;;
4420;SDS011;11824;51.178;13.546;2023-07-24T01:46:04;7.40;;;4.23;;
4420;SDS011;11824;51.178;13.546;2023-07-24T01:48:31;6.57;;;3.63;;
4420;SDS011;11824;51.178;13.546;2023-07-24T01:50:59;7.53;;;3.70;;
4420;SDS011;11824;51.178;13.546;2023-07-24T01:53:26;7.17;;;4.50;;
4420;SDS011;11824;51.178;13.546;2023-07-24T01:55:53;6.93;;;3.80;;
4420;SDS011;11824;51.178;13.546;2023-07-24T01:58:21;7.13;;;4.30;;
4420;SDS011;11824;51.178;13.546;2023-07-24T02:00:49;4.10;;;3.67;;
4420;SDS011;11824;51.178;13.546;2023-07-24T02:03:16;10.23;;;5.10;;
4420;SDS011;11824;51.178;13.546;2023-07-24T02:05:48;13.33;;;4.93;;
4420;SDS011;11824;51.178;13.546;2023-07-24T02:08:16;5.67;;;4.10;;
4420;SDS011;11824;51.178;13.546;2023-07-24T02:10:44;8.30;;;4.23;;
4420;SDS011;11824;51.178;13.546;2023-07-24T02:13:15;6.40;;;4.03;;
4420;SDS011;11824;51.178;13.546;2023-07-24T02:15:43;7.90;;;4.90;;
4420;SDS011;11824;51.178;13.546;2023-07-24T02:18:11;4.97;;;3.80;;
4420;SDS011;11824;51.178;13.546;2023-07-24T02:20:38;5.90;;;4.17;;
4420;SDS011;11824;51.178;13.546;2023-07-24T02:23:06;5.43;;;3.93;;
4420;SDS011;11824;51.178;13.546;2023-07-24T02:25:35;5.43;;;3.60;;
4420;SDS011;11824;51.178;13.546;2023-07-24T02:28:03;12.03;;;10.87;;
4420;SDS011;11824;51.178;13.546;2023-07-24T02:30:30;8.50;;;7.33;;
4420;SDS011;11824;51.178;13.546;2023-07-24T02:32:57;9.73;;;5.40;;
4420;SDS011;11824;51.178;13.546;2023-07-24T02:35:25;5.43;;;3.93;;
4420;SDS011;11824;51.178;13.546;2023-07-24T02:37:53;5.43;;;4.00;;
4420;SDS011;11824;51.178;13.546;2023-07-24T02:40:20;6.50;;;3.70;;
4420;SDS011;11824;51.178;13.546;2023-07-24T02:42:48;8.90;;;4.23;;
4420;SDS011;11824;51.178;13.546;2023-07-24T02:45:15;10.90;;;4.67;;
4420;SDS011;11824;51.178;13.546;2023-07-24T02:47:42;8.10;;;3.50;;
4420;SDS011;11824;51.178;13.546;2023-07-24T02:50:10;5.80;;;4.20;;
4420;SDS011;11824;51.178;13.546;2023-07-24T02:52:38;5.63;;;4.00;;
4420;SDS011;11824;51.178;13.546;2023-07-24T02:55:05;9.07;;;4.83;;
4420;SDS011;11824;51.178;13.546;2023-07-24T02:57:33;5.27;;;3.77;;
4420;SDS011;11824;51.178;13.546;2023-07-24T03:00:01;16.37;;;5.30;;
4420;SDS011;11824;51.178;13.546;2023-07-24T03:02:29;11.93;;;4.77;;
4420;SDS011;11824;51.178;13.546;2023-07-24T03:04:56;9.60;;;4.63;;
4420;SDS011;11824;51.178;13.546;2023-07-24T03:07:24;30.37;;;5.53;;
4420;SDS011;11824;51.178;13.546;2023-07-24T03:09:52;5.57;;;4.07;;
4420;SDS011;11824;51.178;13.546;2023-07-24T03:12:19;8.30;;;5.40;;
4420;SDS011;11824;51.178;13.546;2023-07-24T03:14:47;7.33;;;4.03;;
4420;SDS011;11824;51.178;13.546;2023-07-24T03:17:14;4.80;;;4.00;;
4420;SDS011;11824;51.178;13.546;2023-07-24T03:19:42;6.53;;;4.53;;
4420;SDS011;11824;51.178;13.546;2023-07-24T03:22:09;6.90;;;4.90;;
4420;SDS011;11824;51.178;13.546;2023-07-24T03:24:37;25.47;;;6.50;;
4420;SDS011;11824;51.178;13.546;2023-07-24T03:27:05;6.17;;;4.80;;
4420;SDS011;11824;51.178;13.546;2023-07-24T03:29:32;8.50;;;4.30;;
4420;SDS011;11824;51.178;13.546;2023-07-24T03:32:00;6.90;;;3.87;;
4420;SDS011;11824;51.178;13.546;2023-07-24T03:34:27;6.30;;;4.07;;
4420;SDS011;11824;51.178;13.546;2023-07-24T03:36:54;8.27;;;5.10;;
4420;SDS011;11824;51.178;13.546;2023-07-24T03:39:22;6.27;;;4.50;;
4420;SDS011;11824;51.178;13.546;2023-07-24T03:41:49;8.63;;;4.43;;
4420;SDS011;11824;51.178;13.546;2023-07-24T03:44:17;5.37;;;4.30;;
4420;SDS011;11824;51.178;13.546;2023-07-24T03:46:45;7.10;;;4.97;;
4420;SDS011;11824;51.178;13.546;2023-07-24T03:49:12;7.20;;;4.20;;
4420;SDS011;11824;51.178;13.546;2023-07-24T03:51:40;7.73;;;4.57;;
4420;SDS011;11824;51.178;13.546;2023-07-24T03:54:07;6.40;;;5.07;;
4420;SDS011;11824;51.178;13.546;2023-07-24T03:56:34;20.03;;;5.60;;
4420;SDS011;11824;51.178;13.546;2023-07-24T03:59:02;10.10;;;4.80;;
4420;SDS011;11824;51.178;13.546;2023-07-24T04:01:30;9.93;;;4.60;;
4420;SDS011;11824;51.178;13.546;2023-07-24T04:03:57;7.80;;;4.80;;
4420;SDS011;11824;51.178;13.546;2023-07-24T04:06:25;6.63;;;3.97;;
4420;SDS011;11824;51.178;13.546;2023-07-24T04:08:53;6.60;;;4.23;;
4420;SDS011;11824;51.178;13.546;2023-07-24T04:11:20;7.90;;;5.13;;
4420;SDS011;11824;51.178;13.546;2023-07-24T04:13:48;7.13;;;4.43;;
4420;SDS011;11824;51.178;13.546;2023-07-24T04:16:15;5.27;;;3.70;;
4420;SDS011;11824;51.178;13.546;2023-07-24T04:18:43;9.07;;;4.50;;
4420;SDS011;11824;51.178;13.546;2023-07-24T04:21:11;12.63;;;5.10;;
4420;SDS011;11824;51.178;13.546;2023-07-24T04:23:38;7.93;;;4.67;;
4420;SDS011;11824;51.178;13.546;2023-07-24T04:26:05;7.33;;;4.80;;
4420;SDS011;11824;51.178;13.546;2023-07-24T04:28:33;16.23;;;5.43;;
4420;SDS011;11824;51.178;13.546;2023-07-24T04:31:00;5.17;;;4.00;;
4420;SDS011;11824;51.178;13.546;2023-07-24T04:33:28;8.13;;;4.80;;
4420;SDS011;11824;51.178;13.546;2023-07-24T04:35:57;4.37;;;3.67;;
4420;SDS011;11824;51.178;13.546;2023-07-24T04:38:25;7.77;;;4.10;;
4420;SDS011;11824;51.178;13.546;2023-07-24T04:40:53;10.87;;;5.27;;
4420;SDS011;11824;51.178;13.546;2023-07-24T04:43:20;17.30;;;6.27;;
4420;SDS011;11824;51.178;13.546;2023-07-24T04:45:48;8.13;;;4.57;;
4420;SDS011;11824;51.178;13.546;2023-07-24T04:48:15;27.47;;;7.10;;
4420;SDS011;11824;51.178;13.546;2023-07-24T04:50:44;6.60;;;4.70;;
4420;SDS011;11824;51.178;13.546;2023-07-24T04:53:12;9.33;;;5.00;;
4420;SDS011;11824;51.178;13.546;2023-07-24T04:55:40;20.93;;;5.30;;
4420;SDS011;11824;51.178;13.546;2023-07-24T04:58:07;17.93;;;5.47;;
4420;SDS011;11824;51.178;13.546;2023-07-24T05:00:34;8.03;;;4.50;;
4420;SDS011;11824;51.178;13.546;2023-07-24T05:03:02;12.43;;;4.60;;
4420;SDS011;11824;51.178;13.546;2023-07-24T05:05:29;9.80;;;5.27;;
4420;SDS011;11824;51.178;13.546;2023-07-24T05:07:57;6.83;;;4.60;;
4420;SDS011;11824;51.178;13.546;2023-07-24T05:10:25;5.47;;;4.33;;
4420;SDS011;11824;51.178;13.546;2023-07-24T05:12:52;5.23;;;4.10;;
4420;SDS011;11824;51.178;13.546;2023-07-24T05:15:22;7.27;;;5.10;;
4420;SDS011;11824;51.178;13.546;2023-07-24T05:17:49;6.83;;;4.03;;
4420;SDS011;11824;51.178;13.546;2023-07-24T05:20:17;6.07;;;4.53;;
4420;SDS011;11824;51.178;13.546;2023-07-24T05:22:44;13.20;;;4.40;;
4420;SDS011;11824;51.178;13.546;2023-07-24T05:25:11;7.87;;;4.43;;
4420;SDS011;11824;51.178;13.546;2023-07-24T05:27:40;10.57;;;5.00;;
4420;SDS011;11824;51.178;13.546;2023-07-24T05:30:11;8.53;;;5.13;;
4420;SDS011;11824;51.178;13.546;2023-07-24T05:32:38;11.07;;;4.73;;
4420;SDS011;11824;51.178;13.546;2023-07-24T05:35:06;6.17;;;4.73;;
4420;SDS011;11824;51.178;13.546;2023-07-24T05:37:33;10.00;;;4.83;;
4420;SDS011;11824;51.178;13.546;2023-07-24T05:40:01;6.97;;;4.80;;
4420;SDS011;11824;51.178;13.546;2023-07-24T05:42:28;5.30;;;4.60;;
4420;SDS011;11824;51.178;13.546;2023-07-24T05:44:56;7.17;;;4.90;;
4420;SDS011;11824;51.178;13.546;2023-07-24T05:47:24;10.83;;;5.50;;
4420;SDS011;11824;51.178;13.546;2023-07-24T05:49:52;8.63;;;4.67;;
4420;SDS011;11824;51.178;13.546;2023-07-24T05:52:20;11.83;;;5.33;;
4420;SDS011;11824;51.178;13.546;2023-07-24T05:54:47;5.00;;;4.30;;
4420;SDS011;11824;51.178;13.546;2023-07-24T05:57:14;5.60;;;4.90;;
4420;SDS011;11824;51.178;13.546;2023-07-24T05:59:42;11.27;;;5.40;;
4420;SDS011;11824;51.178;13.546;2023-07-24T06:02:10;9.13;;;4.50;;
4420;SDS011;11824;51.178;13.546;2023-07-24T06:04:37;8.10;;;5.10;;
4420;SDS011;11824;51.178;13.546;2023-07-24T06:07:05;8.20;;;5.20;;
4420;SDS011;11824;51.178;13.546;2023-07-24T06:09:32;13.70;;;4.63;;
4420;SDS011;11824;51.178;13.546;2023-07-24T06:11:59;6.63;;;4.60;;
4420;SDS011;11824;51.178;13.546;2023-07-24T06:14:27;6.90;;;5.50;;
4420;SDS011;11824;51.178;13.546;2023-07-24T06:16:54;6.87;;;4.73;;
4420;SDS011;11824;51.178;13.546;2023-07-24T06:19:22;6.60;;;4.70;;
4420;SDS011;11824;51.178;13.546;2023-07-24T06:21:49;11.67;;;5.03;;
4420;SDS011;11824;51.178;13.546;2023-07-24T06:24:17;12.67;;;5.80;;
4420;SDS011;11824;51.178;13.546;2023-07-24T06:26:44;10.43;;;4.50;;
4420;SDS011;11824;51.178;13.546;2023-07-24T06:29:12;8.40;;;5.23;;
4420;SDS011;11824;51.178;13.546;2023-07-24T06:31:40;5.87;;;4.70;;
4420;SDS011;11824;51.178;13.546;2023-07-24T06:34:07;6.17;;;5.03;;
4420;SDS011;11824;51.178;13.546;2023-07-24T06:36:35;8.70;;;5.70;;
4420;SDS011;11824;51.178;13.546;2023-07-24T06:39:03;5.97;;;4.67;;
4420;SDS011;11824;51.178;13.546;2023-07-24T06:41:30;15.23;;;5.90;;
4420;SDS011;11824;51.178;13.546;2023-07-24T06:43:57;7.50;;;5.00;;
4420;SDS011;11824;51.178;13.546;2023-07-24T06:46:25;7.67;;;5.20;;
4420;SDS011;11824;51.178;13.546;2023-07-24T06:48:53;7.43;;;5.50;;
4420;SDS011;11824;51.178;13.546;2023-07-24T06:51:20;6.27;;;4.83;;
4420;SDS011;11824;51.178;13.546;2023-07-24T06:53:49;7.77;;;4.93;;
4420;SDS011;11824;51.178;13.546;2023-07-24T06:56:16;6.60;;;5.47;;
4420;SDS011;11824;51.178;13.546;2023-07-24T06:58:43;6.33;;;5.30;;
4420;SDS011;11824;51.178;13.546;2023-07-24T07:01:12;8.50;;;4.87;;
4420;SDS011;11824;51.178;13.546;2023-07-24T07:03:40;7.63;;;4.80;;
4420;SDS011;11824;51.178;13.546;2023-07-24T07:06:07;11.33;;;4.87;;
4420;SDS011;11824;51.178;13.546;2023-07-24T07:08:54;5.67;;;4.90;;
4420;SDS011;11824;51.178;13.546;2023-07-24T07:11:22;5.77;;;4.80;;
4420;SDS011;11824;51.178;13.546;2023-07-24T07:13:49;8.37;;;4.90;;
4420;SDS011;11824;51.178;13.546;2023-07-24T07:16:17;6.60;;;4.70;;
4420;SDS011;11824;51.178;13.546;2023-07-24T07:18:44;6.30;;;5.40;;
4420;SDS011;11824;51.178;13.546;2023-07-24T07:21:12;6.03;;;5.43;;
4420;SDS011;11824;51.178;13.546;2023-07-24T07:23:39;6.60;;;5.00;;
4420;SDS011;11824;51.178;13.546;2023-07-24T07:26:07;6.80;;;5.77;;
4420;SDS011;11824;51.178;13.546;2023-07-24T07:28:35;6.37;;;4.97;;
4420;SDS011;11824;51.178;13.546;2023-07-24T07:31:03;7.50;;;5.27;;
4420;SDS011;11824;51.178;13.546;2023-07-24T07:33:30;5.70;;;5.10;;
4420;SDS011;11824;51.178;13.546;2023-07-24T07:35:58;5.33;;;4.60;;
4420;SDS011;11824;51.178;13.546;2023-07-24T07:38:25;6.63;;;5.30;;
4420;SDS011;11824;51.178;13.546;2023-07-24T07:40:53;7.57;;;5.07;;
4420;SDS011;11824;51.178;13.546;2023-07-24T07:43:21;7.73;;;5.47;;
4420;SDS011;11824;51.178;13.546;2023-07-24T07:45:48;9.47;;;5.23;;
4420;SDS011;11824;51.178;13.546;2023-07-24T07:48:15;9.43;;;6.53;;
4420;SDS011;11824;51.178;13.546;2023-07-24T07:50:43;5.97;;;4.73;;
4420;SDS011;11824;51.178;13.546;2023-07-24T07:53:10;6.10;;;5.23;;
4420;SDS011;11824;51.178;13.546;2023-07-24T07:55:37;8.67;;;5.00;;
4420;SDS011;11824;51.178;13.546;2023-07-24T07:58:05;6.70;;;5.00;;
4420;SDS011;11824;51.178;13.546;2023-07-24T08:00:34;11.10;;;5.37;;
4420;SDS011;11824;51.178;13.546;2023-07-24T08:03:01;6.70;;;4.90;;
4420;SDS011;11824;51.178;13.546;2023-07-24T08:05:29;7.10;;;4.73;;
4420;SDS011;11824;51.178;13.546;2023-07-24T08:07:57;6.90;;;5.30;;
4420;SDS011;11824;51.178;13.546;2023-07-24T08:10:25;7.67;;;5.30;;
4420;SDS011;11824;51.178;13.546;2023-07-24T08:12:52;7.10;;;5.23;;
4420;SDS011;11824;51.178;13.546;2023-07-24T08:15:19;6.83;;;5.10;;
4420;SDS011;11824;51.178;13.546;2023-07-24T08:17:48;8.07;;;5.00;;
4420;SDS011;11824;51.178;13.546;2023-07-24T08:20:15;12.07;;;5.30;;
4420;SDS011;11824;51.178;13.546;2023-07-24T08:22:42;7.47;;;5.37;;
4420;SDS011;11824;51.178;13.546;2023-07-24T08:25:10;6.10;;;4.67;;
4420;SDS011;11824;51.178;13.546;2023-07-24T08:27:37;7.00;;;4.90;;
4420;SDS011;11824;51.178;13.546;2023-07-24T08:30:24;13.23;;;5.03;;
4420;SDS011;11824;51.178;13.546;2023-07-24T08:32:52;11.70;;;4.70;;
4420;SDS011;11824;51.178;13.546;2023-07-24T08:35:20;10.50;;;4.63;;
4420;SDS011;11824;51.178;13.546;2023-07-24T08:37:48;6.30;;;5.00;;
4420;SDS011;11824;51.178;13.546;2023-07-24T08:40:15;8.80;;;5.83;;
4420;SDS011;11824;51.178;13.546;2023-07-24T08:42:43;14.67;;;6.13;;
4420;SDS011;11824;51.178;13.546;2023-07-24T08:45:11;5.40;;;4.63;;
4420;SDS011;11824;51.178;13.546;2023-07-24T08:47:40;7.83;;;5.37;;
4420;SDS011;11824;51.178;13.546;2023-07-24T08:50:10;7.30;;;5.33;;
4420;SDS011;11824;51.178;13.546;2023-07-24T08:52:38;7.00;;;5.20;;
4420;SDS011;11824;51.178;13.546;2023-07-24T08:55:08;6.27;;;5.23;;
4420;SDS011;11824;51.178;13.546;2023-07-24T08:57:36;6.03;;;4.77;;
4420;SDS011;11824;51.178;13.546;2023-07-24T09:00:04;7.30;;;5.17;;
4420;SDS011;11824;51.178;13.546;2023-07-24T09:02:32;7.13;;;5.47;;
4420;SDS011;11824;51.178;13.546;2023-07-24T09:05:00;8.03;;;5.60;;
4420;SDS011;11824;51.178;13.546;2023-07-24T09:07:30;7.17;;;5.37;;
4420;SDS011;11824;51.178;13.546;2023-07-24T09:09:58;8.37;;;5.10;;
4420;SDS011;11824;51.178;13.546;2023-07-24T09:12:25;9.40;;;5.60;;
4420;SDS011;11824;51.178;13.546;2023-07-24T09:15:02;7.10;;;5.43;;
4420;SDS011;11824;51.178;13.546;2023-07-24T09:17:33;7.40;;;5.47;;
4420;SDS011;11824;51.178;13.546;2023-07-24T09:20:01;11.30;;;5.80;;
4420;SDS011;11824;51.178;13.546;2023-07-24T09:22:30;9.50;;;5.43;;
4420;SDS011;11824;51.178;13.546;2023-07-24T09:24:59;8.27;;;5.50;;
4420;SDS011;11824;51.178;13.546;2023-07-24T09:27:29;7.93;;;5.83;;
4420;SDS011;11824;51.178;13.546;2023-07-24T09:29:58;7.90;;;5.03;;
4420;SDS011;11824;51.178;13.546;2023-07-24T09:32:26;10.73;;;6.40;;
4420;SDS011;11824;51.178;13.546;2023-07-24T09:34:54;9.30;;;6.20;;
4420;SDS011;11824;51.178;13.546;2023-07-24T09:37:23;13.63;;;5.83;;
4420;SDS011;11824;51.178;13.546;2023-07-24T09:39:53;9.50;;;6.33;;
4420;SDS011;11824;51.178;13.546;2023-07-24T09:42:30;7.73;;;5.57;;
4420;SDS011;11824;51.178;13.546;2023-07-24T09:44:58;8.27;;;5.60;;
4420;SDS011;11824;51.178;13.546;2023-07-24T09:47:26;7.60;;;5.33;;
4420;SDS011;11824;51.178;13.546;2023-07-24T09:50:14;8.90;;;5.43;;
4420;SDS011;11824;51.178;13.546;2023-07-24T09:52:41;9.80;;;6.20;;
4420;SDS011;11824;51.178;13.546;2023-07-24T09:55:11;8.63;;;6.50;;
4420;SDS011;11824;51.178;13.546;2023-07-24T09:57:43;9.00;;;7.37;;
4420;SDS011;11824;51.178;13.546;2023-07-24T10:00:11;10.33;;;6.27;;
4420;SDS011;11824;51.178;13.546;2023-07-24T10:02:40;25.20;;;7.23;;
4420;SDS011;11824;51.178;13.546;2023-07-24T10:05:08;9.77;;;7.10;;
4420;SDS011;11824;51.178;13.546;2023-07-24T10:07:36;18.40;;;7.17;;
4420;SDS011;11824;51.178;13.546;2023-07-24T10:10:05;14.70;;;6.93;;
4420;SDS011;11824;51.178;13.546;2023-07-24T10:12:34;9.60;;;6.80;;
4420;SDS011;11824;51.178;13.546;2023-07-24T10:15:03;11.73;;;6.20;;
4420;SDS011;11824;51.178;13.546;2023-07-24T10:17:36;12.70;;;6.23;;
4420;SDS011;11824;51.178;13.546;2023-07-24T10:20:05;11.63;;;8.03;;
4420;SDS011;11824;51.178;13.546;2023-07-24T10:22:34;11.43;;;7.20;;
4420;SDS011;11824;51.178;13.546;2023-07-24T10:25:03;9.33;;;7.03;;
4420;SDS011;11824;51.178;13.546;2023-07-24T10:27:31;11.47;;;8.17;;
4420;SDS011;11824;51.178;13.546;2023-07-24T10:30:06;11.43;;;7.40;;
4420;SDS011;11824;51.178;13.546;2023-07-24T10:32:53;9.50;;;6.90;;
4420;SDS011;11824;51.178;13.546;2023-07-24T10:35:36;9.17;;;7.07;;
4420;SDS011;11824;51.178;13.546;2023-07-24T10:38:08;16.77;;;7.13;;
4420;SDS011;11824;51.178;13.546;2023-07-24T10:40:36;9.97;;;6.87;;
4420;SDS011;11824;51.178;13.546;2023-07-24T10:43:07;9.37;;;6.67;;
4420;SDS011;11824;51.178;13.546;2023-07-24T10:45:40;9.40;;;6.70;;
4420;SDS011;11824;51.178;13.546;2023-07-24T10:48:08;9.87;;;6.47;;
4420;SDS011;11824;51.178;13.546;2023-07-24T10:50:37;7.90;;;5.97;;
4420;SDS011;11824;51.178;13.546;2023-07-24T10:53:06;13.63;;;6.20;;
4420;SDS011;11824;51.178;13.546;2023-07-24T10:55:34;10.77;;;6.00;;
4420;SDS011;11824;51.178;13.546;2023-07-24T10:58:01;8.07;;;6.17;;
4420;SDS011;11824;51.178;13.546;2023-07-24T11:00:29;10.27;;;6.50;;
4420;SDS011;11824;51.178;13.546;2023-07-24T11:02:57;10.00;;;6.60;;
4420;SDS011;11824;51.178;13.546;2023-07-24T11:05:25;9.90;;;6.80;;
4420;SDS011;11824;51.178;13.546;2023-07-24T11:07:52;10.10;;;7.53;;
4420;SDS011;11824;51.178;13.546;2023-07-24T11:10:21;10.30;;;6.63;;
4420;SDS011;11824;51.178;13.546;2023-07-24T11:12:49;14.53;;;6.20;;
4420;SDS011;11824;51.178;13.546;2023-07-24T11:15:22;9.10;;;6.40;;
4420;SDS011;11824;51.178;13.546;2023-07-24T11:17:52;8.90;;;6.70;;
4420;SDS011;11824;51.178;13.546;2023-07-24T11:20:20;8.63;;;6.00;;
4420;SDS011;11824;51.178;13.546;2023-07-24T11:22:47;10.90;;;6.30;;
4420;SDS011;11824;51.178;13.546;2023-07-24T11:25:15;8.27;;;6.57;;
4420;SDS011;11824;51.178;13.546;2023-07-24T11:27:43;11.30;;;6.40;;
4420;SDS011;11824;51.178;13.546;2023-07-24T11:30:12;8.40;;;5.63;;
4420;SDS011;11824;51.178;13.546;2023-07-24T11:32:45;8.67;;;7.27;;
4420;SDS011;11824;51.178;13.546;2023-07-24T11:35:15;8.70;;;5.87;;
4420;SDS011;11824;51.178;13.546;2023-07-24T11:37:42;7.17;;;5.90;;
4420;SDS011;11824;51.178;13.546;2023-07-24T11:40:10;10.83;;;5.60;;
4420;SDS011;11824;51.178;13.546;2023-07-24T11:42:41;14.07;;;5.90;;
4420;SDS011;11824;51.178;13.546;2023-07-24T11:45:10;7.63;;;5.53;;
4420;SDS011;11824;51.178;13.546;2023-07-24T11:47:41;7.57;;;5.63;;
4420;SDS011;11824;51.178;13.546;2023-07-24T11:50:09;8.47;;;6.10;;
4420;SDS011;11824;51.178;13.546;2023-07-24T11:52:38;7.37;;;6.00;;
4420;SDS011;11824;51.178;13.546;2023-07-24T11:55:08;13.70;;;6.30;;
4420;SDS011;11824;51.178;13.546;2023-07-24T11:57:36;8.60;;;6.03;;
4420;SDS011;11824;51.178;13.546;2023-07-24T12:00:04;8.80;;;6.20;;
4420;SDS011;11824;51.178;13.546;2023-07-24T12:02:43;10.07;;;6.30;;
4420;SDS011;11824;51.178;13.546;2023-07-24T12:05:11;8.20;;;6.10;;
4420;SDS011;11824;51.178;13.546;2023-07-24T12:07:39;8.70;;;6.23;;
4420;SDS011;11824;51.178;13.546;2023-07-24T12:10:09;16.90;;;6.20;;
4420;SDS011;11824;51.178;13.546;2023-07-24T12:12:38;10.60;;;5.73;;
4420;SDS011;11824;51.178;13.546;2023-07-24T12:15:07;9.10;;;6.23;;
4420;SDS011;11824;51.178;13.546;2023-07-24T12:17:35;14.83;;;6.27;;
4420;SDS011;11824;51.178;13.546;2023-07-24T12:20:03;11.63;;;6.37;;
4420;SDS011;11824;51.178;13.546;2023-07-24T12:22:33;9.43;;;6.40;;
4420;SDS011;11824;51.178;13.546;2023-07-24T12:25:02;8.50;;;6.23;;
4420;SDS011;11824;51.178;13.546;2023-07-24T12:27:30;9.77;;;6.23;;
4420;SDS011;11824;51.178;13.546;2023-07-24T12:29:58;8.97;;;7.23;;
4420;SDS011;11824;51.178;13.546;2023-07-24T12:32:26;11.20;;;7.50;;
4420;SDS011;11824;51.178;13.546;2023-07-24T12:34:54;11.70;;;6.70;;
4420;SDS011;11824;51.178;13.546;2023-07-24T12:37:21;9.50;;;7.17;;
4420;SDS011;11824;51.178;13.546;2023-07-24T12:39:49;9.50;;;7.20;;
4420;SDS011;11824;51.178;13.546;2023-07-24T12:42:17;10.80;;;7.77;;
4420;SDS011;11824;51.178;13.546;2023-07-24T12:44:44;9.80;;;7.60;;
4420;SDS011;11824;51.178;13.546;2023-07-24T12:47:12;12.53;;;7.97;;
4420;SDS011;11824;51.178;13.546;2023-07-24T12:49:39;17.60;;;7.90;;
4420;SDS011;11824;51.178;13.546;2023-07-24T12:52:07;12.07;;;8.17;;
4420;SDS011;11824;51.178;13.546;2023-07-24T12:54:34;10.60;;;7.07;;
4420;SDS011;11824;51.178;13.546;2023-07-24T12:57:22;9.80;;;6.97;;
4420;SDS011;11824;51.178;13.546;2023-07-24T12:59:51;11.57;;;6.73;;
4420;SDS011;11824;51.178;13.546;2023-07-24T13:02:19;10.93;;;7.50;;
4420;SDS011;11824;51.178;13.546;2023-07-24T13:04:47;9.63;;;7.60;;
4420;SDS011;11824;51.178;13.546;2023-07-24T13:07:14;12.27;;;6.70;;
4420;SDS011;11824;51.178;13.546;2023-07-24T13:09:42;9.83;;;6.97;;
4420;SDS011;11824;51.178;13.546;2023-07-24T13:12:10;12.80;;;7.20;;
4420;SDS011;11824;51.178;13.546;2023-07-24T13:14:38;9.67;;;6.87;;
4420;SDS011;11824;51.178;13.546;2023-07-24T13:17:08;7.87;;;6.37;;
4420;SDS011;11824;51.178;13.546;2023-07-24T13:19:35;10.03;;;7.20;;
4420;SDS011;11824;51.178;13.546;2023-07-24T13:22:03;9.70;;;7.33;;
4420;SDS011;11824;51.178;13.546;2023-07-24T13:24:31;12.87;;;5.40;;
4420;SDS011;11824;51.178;13.546;2023-07-24T13:26:58;8.77;;;7.00;;
4420;SDS011;11824;51.178;13.546;2023-07-24T13:29:26;13.60;;;7.03;;
4420;SDS011;11824;51.178;13.546;2023-07-24T13:31:54;10.57;;;5.93;;
4420;SDS011;11824;51.178;13.546;2023-07-24T13:34:21;9.57;;;5.40;;
4420;SDS011;11824;51.178;13.546;2023-07-24T13:36:50;7.20;;;5.60;;
4420;SDS011;11824;51.178;13.546;2023-07-24T13:39:17;8.40;;;6.60;;
4420;SDS011;11824;51.178;13.546;2023-07-24T13:41:45;6.70;;;5.70;;
4420;SDS011;11824;51.178;13.546;2023-07-24T13:44:12;7.30;;;5.20;;
4420;SDS011;11824;51.178;13.546;2023-07-24T13:46:40;6.43;;;5.00;;
4420;SDS011;11824;51.178;13.546;2023-07-24T13:49:08;5.13;;;4.63;;
4420;SDS011;11824;51.178;13.546;2023-07-24T13:51:35;8.00;;;4.20;;
4420;SDS011;11824;51.178;13.546;2023-07-24T13:54:03;6.10;;;5.10;;
4420;SDS011;11824;51.178;13.546;2023-07-24T13:56:30;9.20;;;5.03;;
4420;SDS011;11824;51.178;13.546;2023-07-24T13:59:00;5.37;;;4.20;;
4420;SDS011;11824;51.178;13.546;2023-07-24T14:01:28;7.50;;;5.23;;
4420;SDS011;11824;51.178;13.546;2023-07-24T14:03:56;6.80;;;4.63;;
4420;SDS011;11824;51.178;13.546;2023-07-24T14:06:25;6.10;;;4.50;;
4420;SDS011;11824;51.178;13.546;2023-07-24T14:08:52;6.27;;;4.97;;
4420;SDS011;11824;51.178;13.546;2023-07-24T14:11:20;5.60;;;4.50;;
4420;SDS011;11824;51.178;13.546;2023-07-24T14:13:50;4.60;;;4.20;;
4420;SDS011;11824;51.178;13.546;2023-07-24T14:16:17;5.40;;;4.63;;
4420;SDS011;11824;51.178;13.546;2023-07-24T14:18:45;6.87;;;5.27;;
4420;SDS011;11824;51.178;13.546;2023-07-24T14:21:12;7.33;;;5.83;;
4420;SDS011;11824;51.178;13.546;2023-07-24T14:23:40;8.37;;;5.40;;
4420;SDS011;11824;51.178;13.546;2023-07-24T14:26:08;8.03;;;6.17;;
4420;SDS011;11824;51.178;13.546;2023-07-24T14:28:35;8.43;;;6.30;;
4420;SDS011;11824;51.178;13.546;2023-07-24T14:31:03;8.20;;;6.20;;
4420;SDS011;11824;51.178;13.546;2023-07-24T14:33:31;7.17;;;5.47;;
4420;SDS011;11824;51.178;13.546;2023-07-24T14:35:58;9.87;;;6.83;;
4420;SDS011;11824;51.178;13.546;2023-07-24T14:38:26;14.90;;;6.47;;
4420;SDS011;11824;51.178;13.546;2023-07-24T14:40:54;9.37;;;6.80;;
4420;SDS011;11824;51.178;13.546;2023-07-24T14:43:23;13.63;;;7.33;;
4420;SDS011;11824;51.178;13.546;2023-07-24T14:45:51;8.30;;;5.70;;
4420;SDS011;11824;51.178;13.546;2023-07-24T14:48:19;8.17;;;6.70;;
4420;SDS011;11824;51.178;13.546;2023-07-24T14:50:46;9.97;;;6.53;;